createdAt,value
2023-04-27T00:00:15.346Z,41.93
2023-04-27T00:02:45.440Z,41.75
2023-04-27T00:05:14.468Z,41.73
2023-04-27T00:07:43.176Z,41.73
2023-04-27T00:10:12.126Z,41.76
2023-04-27T00:12:41.968Z,41.91
2023-04-27T00:15:11.676Z,41.83
2023-04-27T00:17:40.209Z,41.84
2023-04-27T00:20:11.979Z,41.91
2023-04-27T00:22:40.892Z,42.01
2023-04-27T00:25:09.950Z,41.94
2023-04-27T00:27:38.377Z,41.84
2023-04-27T00:30:08.103Z,42.08
2023-04-27T00:32:36.621Z,41.81
2023-04-27T00:35:05.341Z,41.88
2023-04-27T00:37:35.146Z,41.79
2023-04-27T00:40:06.612Z,41.85
2023-04-27T00:42:35.575Z,41.91
2023-04-27T00:45:05.360Z,42.04
2023-04-27T00:47:34.368Z,41.90
2023-04-27T00:50:08.404Z,41.94
2023-04-27T00:52:39.415Z,42.04
2023-04-27T00:55:09.620Z,41.90
2023-04-27T00:57:38.982Z,42.04
2023-04-27T01:00:10.959Z,42.02
2023-04-27T01:02:40.348Z,42.30
2023-04-27T01:05:09.841Z,42.09
2023-04-27T01:07:40.317Z,42.10
2023-04-27T01:10:09.875Z,42.21
2023-04-27T01:12:38.427Z,41.99
2023-04-27T01:15:08.480Z,42.11
2023-04-27T01:17:37.310Z,42.00
2023-04-27T01:20:10.773Z,42.14
2023-04-27T01:22:40.731Z,42.12
2023-04-27T01:25:12.611Z,42.15
2023-04-27T01:27:41.037Z,42.31
2023-04-27T01:30:09.782Z,42.01
2023-04-27T01:32:38.733Z,42.28
2023-04-27T01:35:08.134Z,42.33
2023-04-27T01:37:36.892Z,41.99
2023-04-27T01:40:07.676Z,42.22
2023-04-27T01:42:38.242Z,42.14
2023-04-27T01:45:12.588Z,42.15
2023-04-27T01:47:41.155Z,42.18
2023-04-27T01:50:10.412Z,42.19
2023-04-27T01:52:41.008Z,42.11
2023-04-27T01:55:11.107Z,42.27
2023-04-27T01:57:41.029Z,42.18
2023-04-27T02:00:10.612Z,42.14
2023-04-27T02:02:53.663Z,42.35
2023-04-27T02:05:22.475Z,42.09
2023-04-27T02:07:51.244Z,42.17
2023-04-27T02:10:22.092Z,42.25
2023-04-27T02:12:51.964Z,42.37
2023-04-27T02:15:20.450Z,42.36
2023-04-27T02:17:48.983Z,42.26
2023-04-27T02:20:17.574Z,42.29
2023-04-27T02:22:46.079Z,42.29
2023-04-27T02:25:15.431Z,42.45
2023-04-27T02:27:44.501Z,42.18
2023-04-27T02:30:15.714Z,42.17
2023-04-27T02:32:44.919Z,42.33
2023-04-27T02:35:14.540Z,42.25
2023-04-27T02:37:42.937Z,42.28
2023-04-27T02:40:11.884Z,42.25
2023-04-27T02:42:40.463Z,42.49
2023-04-27T02:45:09.626Z,42.44
2023-04-27T02:47:39.547Z,42.34
2023-04-27T02:50:08.988Z,42.35
2023-04-27T02:52:38.011Z,42.25
2023-04-27T02:55:07.232Z,42.35
2023-04-27T02:57:35.728Z,42.49
2023-04-27T03:00:05.886Z,42.38
2023-04-27T03:02:37.457Z,42.35
2023-04-27T03:05:08.316Z,42.36
2023-04-27T03:07:36.793Z,42.42
2023-04-27T03:10:06.028Z,42.28
2023-04-27T03:12:34.657Z,42.42
2023-04-27T03:15:03.246Z,42.36
2023-04-27T03:17:32.171Z,42.54
2023-04-27T03:20:00.712Z,42.35
2023-04-27T03:22:30.618Z,42.26
2023-04-27T03:24:58.996Z,42.33
2023-04-27T03:27:27.344Z,42.32
2023-04-27T03:29:55.867Z,42.40
2023-04-27T03:32:24.369Z,42.29
2023-04-27T03:34:53.288Z,42.36
2023-04-27T03:37:21.809Z,42.50
2023-04-27T03:39:51.622Z,42.28
2023-04-27T03:42:20.145Z,42.27
2023-04-27T03:44:48.538Z,42.33
2023-04-27T03:47:16.941Z,42.29
2023-04-27T03:49:46.185Z,42.30
2023-04-27T03:52:14.749Z,42.53
2023-04-27T03:54:43.265Z,42.20
2023-04-27T03:57:14.499Z,42.37
2023-04-27T03:59:42.969Z,42.23
2023-04-27T04:02:11.720Z,42.39
2023-04-27T04:04:41.083Z,42.27
2023-04-27T04:07:09.687Z,42.32
2023-04-27T04:09:38.150Z,42.29
2023-04-27T04:12:07.304Z,42.25
2023-04-27T04:14:37.130Z,42.39
2023-04-27T04:17:05.615Z,42.42
2023-04-27T04:19:35.128Z,42.29
2023-04-27T04:22:03.629Z,42.41
2023-04-27T04:24:32.265Z,42.37
2023-04-27T04:27:01.201Z,42.49
2023-04-27T04:29:29.618Z,42.39
2023-04-27T04:31:59.552Z,42.25
2023-04-27T04:34:29.204Z,42.44
2023-04-27T04:36:57.820Z,42.29
2023-04-27T04:39:26.971Z,42.39
2023-04-27T04:41:55.397Z,42.36
2023-04-27T04:44:26.105Z,42.40
2023-04-27T04:46:55.528Z,42.36
2023-04-27T04:49:28.978Z,42.40
2023-04-27T04:51:57.506Z,42.37
2023-04-27T04:54:25.923Z,42.45
2023-04-27T04:56:58.295Z,42.62
2023-04-27T04:59:27.592Z,42.39
2023-04-27T05:01:56.177Z,42.47
2023-04-27T05:04:24.988Z,42.42
2023-04-27T05:06:54.819Z,42.44
2023-04-27T05:09:23.749Z,42.53
2023-04-27T05:11:52.143Z,42.54
2023-04-27T05:14:20.839Z,42.97
2023-04-27T05:16:51.553Z,43.00
2023-04-27T05:19:20.740Z,42.99
2023-04-27T05:21:49.254Z,42.73
2023-04-27T05:24:19.097Z,43.20
2023-04-27T05:26:47.482Z,43.44
2023-04-27T05:29:16.492Z,43.74
2023-04-27T05:31:45.165Z,43.95
2023-04-27T05:34:13.675Z,44.18
2023-04-27T05:36:42.171Z,43.69
2023-04-27T05:39:10.653Z,43.88
2023-04-27T05:41:40.625Z,43.70
2023-04-27T05:44:09.092Z,43.43
2023-04-27T05:46:38.706Z,43.69
2023-04-27T05:49:07.608Z,43.48
2023-04-27T05:51:36.994Z,43.41
2023-04-27T05:54:05.586Z,43.45
2023-04-27T05:56:33.986Z,43.43
2023-04-27T05:59:03.980Z,43.25
2023-04-27T06:01:32.632Z,43.13
2023-04-27T06:04:01.724Z,42.58
2023-04-27T06:06:33.128Z,42.36
2023-04-27T06:09:01.525Z,41.89
2023-04-27T06:11:30.286Z,41.77
2023-04-27T06:13:58.713Z,41.18
2023-04-27T06:16:28.567Z,41.04
2023-04-27T06:18:57.187Z,40.47
2023-04-27T06:21:26.527Z,39.96
2023-04-27T06:23:54.905Z,39.62
2023-04-27T06:26:23.393Z,39.20
2023-04-27T06:28:51.777Z,39.37
2023-04-27T06:31:20.383Z,39.54
2023-04-27T06:33:50.178Z,39.47
2023-04-27T06:36:19.566Z,39.13
2023-04-27T06:38:48.026Z,39.38
2023-04-27T06:41:16.410Z,38.82
2023-04-27T06:43:44.813Z,39.37
2023-04-27T06:46:13.357Z,38.80
2023-04-27T06:48:42.066Z,39.27
2023-04-27T06:51:12.785Z,39.18
2023-04-27T06:53:41.271Z,39.11
2023-04-27T06:56:12.869Z,38.54
2023-04-27T06:58:41.342Z,38.57
2023-04-27T07:01:09.869Z,38.71
2023-04-27T07:03:38.466Z,38.65
2023-04-27T07:06:07.261Z,38.62
2023-04-27T07:08:37.655Z,38.61
2023-04-27T07:11:06.229Z,39.01
2023-04-27T07:13:34.695Z,39.20
2023-04-27T07:16:03.142Z,39.06
2023-04-27T07:18:31.749Z,39.09
2023-04-27T07:21:00.317Z,38.63
2023-04-27T07:23:28.793Z,38.90
2023-04-27T07:25:58.817Z,38.91
2023-04-27T07:28:29.583Z,38.66
2023-04-27T07:30:58.209Z,38.61
2023-04-27T07:33:26.943Z,39.02
2023-04-27T07:35:56.300Z,39.27
2023-04-27T07:38:25.498Z,38.96
2023-04-27T07:40:54.576Z,39.27
2023-04-27T07:43:25.655Z,38.98
2023-04-27T07:45:54.424Z,39.58
2023-04-27T07:48:23.061Z,39.77
2023-04-27T07:50:51.765Z,39.59
2023-04-27T07:53:20.228Z,39.76
2023-04-27T07:55:48.627Z,39.67
2023-04-27T07:58:17.302Z,39.59
2023-04-27T08:00:47.226Z,40.22
2023-04-27T08:03:15.822Z,40.24
2023-04-27T08:05:44.752Z,39.74
2023-04-27T08:08:13.716Z,39.98
2023-04-27T08:10:42.924Z,40.33
2023-04-27T08:13:11.400Z,40.42
2023-04-27T08:15:39.997Z,40.22
2023-04-27T08:18:09.912Z,40.06
2023-04-27T08:20:38.468Z,40.19
2023-04-27T08:23:09.900Z,40.41
2023-04-27T08:25:38.321Z,40.20
2023-04-27T08:28:06.815Z,40.09
2023-04-27T08:30:35.550Z,40.53
2023-04-27T08:33:04.131Z,40.43
2023-04-27T08:35:34.140Z,40.57
2023-04-27T08:38:02.676Z,40.57
2023-04-27T08:40:31.130Z,40.74
2023-04-27T08:43:00.629Z,40.89
2023-04-27T08:45:29.775Z,40.82
2023-04-27T08:47:58.318Z,40.79
2023-04-27T08:50:27.167Z,40.52
2023-04-27T08:52:56.953Z,40.93
2023-04-27T08:55:25.521Z,41.05
2023-04-27T08:57:57.956Z,40.83
2023-04-27T09:00:27.728Z,40.82
2023-04-27T09:02:56.265Z,41.09
2023-04-27T09:05:24.869Z,41.44
2023-04-27T09:08:02.172Z,41.21
2023-04-27T09:10:30.862Z,41.32
2023-04-27T09:13:01.364Z,41.58
2023-04-27T09:15:29.948Z,41.39
2023-04-27T09:17:59.135Z,41.90
2023-04-27T09:20:28.581Z,41.84
2023-04-27T09:22:58.824Z,41.58
2023-04-27T09:25:28.661Z,41.53
2023-04-27T09:27:58.174Z,41.91
2023-04-27T09:30:27.234Z,42.12
2023-04-27T09:32:57.692Z,42.11
2023-04-27T09:35:27.611Z,42.08
2023-04-27T09:37:58.422Z,42.17
2023-04-27T09:40:29.822Z,41.90
2023-04-27T09:43:00.970Z,42.20
2023-04-27T09:45:29.577Z,41.92
2023-04-27T09:47:59.601Z,42.37
2023-04-27T09:50:28.065Z,42.15
2023-04-27T09:52:58.166Z,44.90
2023-04-27T09:55:31.992Z,44.56
2023-04-27T09:58:15.506Z,43.09
2023-04-27T10:00:53.506Z,42.15
2023-04-27T10:03:27.857Z,41.17
2023-04-27T10:06:33.928Z,40.68
2023-04-27T10:09:06.187Z,39.99
2023-04-27T10:11:40.034Z,39.59
2023-04-27T10:14:11.038Z,39.37
2023-04-27T10:16:47.527Z,39.45
2023-04-27T10:19:16.553Z,39.43
2023-04-27T10:21:56.939Z,39.85
2023-04-27T10:24:38.233Z,38.37
2023-04-27T10:27:08.086Z,38.34
2023-04-27T10:29:38.566Z,38.07
2023-04-27T10:32:08.950Z,37.69
2023-04-27T10:34:38.615Z,37.79
2023-04-27T10:37:08.526Z,37.76
2023-04-27T10:39:47.011Z,37.38
2023-04-27T10:42:28.193Z,37.58
2023-04-27T10:44:58.396Z,37.69
2023-04-27T10:47:37.895Z,37.68
2023-04-27T10:50:08.493Z,37.55
2023-04-27T10:52:37.048Z,37.54
2023-04-27T10:55:17.843Z,37.45
2023-04-27T10:57:50.802Z,37.29
2023-04-27T11:00:30.452Z,37.37
2023-04-27T11:03:11.255Z,37.38
2023-04-27T11:05:39.790Z,37.83
2023-04-27T11:08:09.488Z,37.63
2023-04-27T11:10:41.528Z,39.01
2023-04-27T11:13:11.747Z,39.59
2023-04-27T11:15:45.282Z,39.04
2023-04-27T11:18:13.777Z,39.43
2023-04-27T11:20:42.335Z,39.36
2023-04-27T11:23:12.033Z,40.31
2023-04-27T11:25:41.792Z,40.33
2023-04-27T11:28:18.383Z,40.47
2023-04-27T11:30:47.624Z,40.73
2023-04-27T11:33:16.236Z,40.87
2023-04-27T11:35:44.633Z,40.81
2023-04-27T11:38:20.094Z,40.91
2023-04-27T11:41:00.591Z,40.89
2023-04-27T11:43:29.631Z,40.54
2023-04-27T11:45:58.784Z,41.49
2023-04-27T11:48:29.319Z,41.40
2023-04-27T11:51:01.266Z,41.44
2023-04-27T11:53:32.076Z,41.53
2023-04-27T11:56:03.338Z,41.40
2023-04-27T11:58:34.527Z,41.41
2023-04-27T12:01:03.277Z,41.49
2023-04-27T12:03:32.273Z,41.55
2023-04-27T12:06:16.226Z,41.82
2023-04-27T12:08:49.484Z,41.41
2023-04-27T12:11:19.420Z,41.68
2023-04-27T12:13:48.223Z,41.77
2023-04-27T12:16:16.698Z,41.69
2023-04-27T12:18:45.190Z,41.64
2023-04-27T12:21:14.298Z,41.36
2023-04-27T12:23:43.187Z,41.42
2023-04-27T12:26:15.176Z,41.47
2023-04-27T12:28:45.321Z,41.75
2023-04-27T12:31:16.511Z,41.82
2023-04-27T12:33:45.332Z,41.54
2023-04-27T12:36:13.799Z,41.61
2023-04-27T12:38:42.349Z,41.72
2023-04-27T12:41:10.895Z,41.65
2023-04-27T12:43:41.084Z,41.96
2023-04-27T12:46:11.618Z,41.80
2023-04-27T12:48:41.156Z,42.07
2023-04-27T12:51:09.674Z,42.07
2023-04-27T12:53:38.140Z,42.14
2023-04-27T12:56:07.302Z,41.91
2023-04-27T12:58:35.936Z,42.18
2023-04-27T13:01:04.523Z,42.22
2023-04-27T13:03:34.378Z,41.96
2023-04-27T13:06:02.909Z,42.15
2023-04-27T13:08:31.347Z,42.41
2023-04-27T13:10:59.823Z,42.34
2023-04-27T13:13:28.267Z,42.25
2023-04-27T13:15:58.348Z,42.20
2023-04-27T13:18:27.076Z,42.28
2023-04-27T13:20:56.812Z,42.40
2023-04-27T13:23:26.471Z,42.61
2023-04-27T13:25:55.264Z,42.54
2023-04-27T13:28:23.888Z,42.43
2023-04-27T13:30:52.706Z,42.61
2023-04-27T13:33:23.694Z,43.44
2023-04-27T13:35:52.549Z,43.30
2023-04-27T13:38:22.316Z,43.35
2023-04-27T13:40:50.936Z,43.32
2023-04-27T13:43:19.385Z,43.45
2023-04-27T13:45:49.513Z,43.32
2023-04-27T13:48:17.997Z,43.40
2023-04-27T13:50:46.732Z,43.59
2023-04-27T13:53:16.670Z,43.68
2023-04-27T13:55:46.488Z,43.60
2023-04-27T13:58:14.922Z,43.46
2023-04-27T14:00:43.331Z,43.93
2023-04-27T14:03:11.956Z,43.96
2023-04-27T14:05:40.591Z,43.46
2023-04-27T14:08:09.011Z,43.86
2023-04-27T14:10:37.921Z,43.66
2023-04-27T14:13:07.806Z,43.68
2023-04-27T14:15:37.226Z,43.82
2023-04-27T14:18:07.510Z,43.59
2023-04-27T14:20:36.312Z,43.95
2023-04-27T14:23:06.936Z,44.05
2023-04-27T14:25:35.599Z,43.80
2023-04-27T14:28:06.158Z,43.90
2023-04-27T14:30:36.080Z,44.16
2023-04-27T14:33:04.875Z,44.04
2023-04-27T14:35:35.558Z,44.05
2023-04-27T14:38:04.389Z,44.13
2023-04-27T14:40:33.553Z,44.24
2023-04-27T14:43:02.025Z,44.22
2023-04-27T14:45:39.761Z,44.28
2023-04-27T14:48:17.809Z,44.24
2023-04-27T14:50:46.853Z,44.30
2023-04-27T14:53:15.327Z,44.39
2023-04-27T14:55:45.815Z,44.41
2023-04-27T14:58:14.588Z,44.23
2023-04-27T15:00:43.402Z,44.55
2023-04-27T15:03:12.174Z,44.53
2023-04-27T15:05:42.133Z,44.14
2023-04-27T15:08:11.557Z,44.59
2023-04-27T15:10:40.038Z,44.46
2023-04-27T15:13:08.478Z,44.34
2023-04-27T15:15:37.087Z,44.49
2023-04-27T15:18:06.052Z,44.56
2023-04-27T15:20:34.533Z,44.36
2023-04-27T15:23:04.651Z,44.37
2023-04-27T15:25:33.114Z,44.21
2023-04-27T15:28:03.190Z,44.02
2023-04-27T15:30:31.592Z,43.92
2023-04-27T15:33:00.199Z,44.08
2023-04-27T15:35:28.756Z,44.93
2023-04-27T15:37:57.160Z,44.85
2023-04-27T15:40:27.106Z,44.81
2023-04-27T15:42:55.628Z,44.87
2023-04-27T15:45:24.294Z,44.66
2023-04-27T15:47:52.988Z,45.04
2023-04-27T15:50:21.615Z,45.12
2023-04-27T15:52:50.647Z,45.43
2023-04-27T15:55:19.533Z,45.38
2023-04-27T15:57:50.213Z,44.79
2023-04-27T16:00:21.999Z,44.83
2023-04-27T16:02:50.921Z,44.56
2023-04-27T16:05:19.651Z,45.02
2023-04-27T16:07:48.205Z,44.98
2023-04-27T16:10:16.701Z,44.97
2023-04-27T16:12:45.147Z,45.13
2023-04-27T16:15:15.296Z,45.02
2023-04-27T16:17:43.972Z,45.03
2023-04-27T16:20:12.649Z,45.13
2023-04-27T16:22:41.542Z,45.18
2023-04-27T16:25:11.331Z,45.23
2023-04-27T16:27:40.660Z,44.97
2023-04-27T16:30:10.054Z,45.00
2023-04-27T16:32:40.207Z,44.99
2023-04-27T16:35:09.557Z,45.00
2023-04-27T16:37:38.251Z,45.08
2023-04-27T16:40:08.554Z,44.66
2023-04-27T16:42:37.104Z,44.49
2023-04-27T16:45:09.148Z,44.68
2023-04-27T16:47:41.791Z,44.88
2023-04-27T16:50:11.381Z,44.95
2023-04-27T16:52:39.827Z,44.76
2023-04-27T16:55:09.165Z,45.08
2023-04-27T16:57:37.894Z,44.91
2023-04-27T17:00:09.563Z,45.19
2023-04-27T17:02:39.402Z,44.51
2023-04-27T17:05:10.840Z,44.30
2023-04-27T17:07:39.370Z,44.43
2023-04-27T17:10:09.505Z,44.36
2023-04-27T17:12:38.229Z,44.25
2023-04-27T17:15:08.197Z,44.58
2023-04-27T17:17:36.963Z,44.33
2023-04-27T17:20:07.338Z,44.61
2023-04-27T17:22:37.135Z,44.35
2023-04-27T17:25:06.527Z,44.65
2023-04-27T17:27:34.933Z,44.33
2023-04-27T17:30:03.444Z,44.46
2023-04-27T17:32:32.484Z,44.48
2023-04-27T17:35:00.918Z,44.68
2023-04-27T17:37:29.353Z,44.45
2023-04-27T17:39:59.861Z,44.33
2023-04-27T17:42:28.418Z,44.66
2023-04-27T17:44:56.941Z,44.50
2023-04-27T17:47:25.749Z,44.78
2023-04-27T17:49:54.191Z,44.54
2023-04-27T17:52:22.615Z,44.47
2023-04-27T17:54:51.133Z,44.72
2023-04-27T17:57:21.513Z,44.60
2023-04-27T17:59:50.823Z,44.66
2023-04-27T18:02:19.595Z,44.76
2023-04-27T18:04:48.086Z,44.72
2023-04-27T18:07:18.445Z,44.65
2023-04-27T18:09:46.923Z,44.60
2023-04-27T18:12:15.344Z,44.80
2023-04-27T18:14:45.045Z,44.83
2023-04-27T18:17:13.522Z,44.91
2023-04-27T18:19:42.023Z,44.72
2023-04-27T18:22:10.553Z,44.64
2023-04-27T18:24:39.108Z,44.92
2023-04-27T18:27:07.511Z,44.68
2023-04-27T18:29:35.852Z,44.64
2023-04-27T18:32:06.340Z,44.80
2023-04-27T18:34:35.096Z,44.91
2023-04-27T18:37:03.529Z,44.92
2023-04-27T18:39:31.941Z,44.69
2023-04-27T18:42:00.529Z,44.65
2023-04-27T18:44:28.948Z,44.82
2023-04-27T18:46:57.344Z,44.74
2023-04-27T18:49:27.240Z,44.94
2023-04-27T18:51:55.661Z,44.96
2023-04-27T18:54:24.038Z,45.11
2023-04-27T18:56:53.592Z,44.80
2023-04-27T18:59:22.046Z,44.99
2023-04-27T19:01:50.548Z,44.82
2023-04-27T19:04:19.262Z,44.87
2023-04-27T19:06:49.981Z,44.89
2023-04-27T19:09:19.160Z,44.98
2023-04-27T19:11:56.155Z,44.88
2023-04-27T19:14:31.145Z,44.85
2023-04-27T19:16:59.644Z,44.75
2023-04-27T19:19:28.131Z,45.00
2023-04-27T19:21:58.296Z,45.01
2023-04-27T19:24:27.380Z,45.09
2023-04-27T19:26:55.845Z,44.91
2023-04-27T19:29:26.528Z,44.85
2023-04-27T19:31:55.249Z,45.16
2023-04-27T19:34:23.773Z,45.02
2023-04-27T19:36:52.214Z,44.82
2023-04-27T19:39:21.966Z,45.04
2023-04-27T19:41:50.520Z,45.03
2023-04-27T19:44:18.990Z,44.78
2023-04-27T19:46:47.508Z,44.98
2023-04-27T19:49:16.085Z,45.15
2023-04-27T19:51:44.552Z,44.57
2023-04-27T19:54:13.075Z,44.84
2023-04-27T19:56:42.981Z,44.73
2023-04-27T19:59:11.604Z,44.99
2023-04-27T20:01:40.160Z,44.85
2023-04-27T20:04:08.868Z,45.11
2023-04-27T20:06:37.426Z,44.99
2023-04-27T20:09:05.913Z,44.81
2023-04-27T20:11:34.386Z,44.70
2023-04-27T20:14:04.133Z,44.81
2023-04-27T20:16:32.639Z,44.61
2023-04-27T20:19:01.030Z,44.56
2023-04-27T20:21:29.513Z,44.63
2023-04-27T20:23:57.996Z,44.44
2023-04-27T20:26:26.444Z,44.53
2023-04-27T20:28:54.932Z,44.55
2023-04-27T20:31:24.756Z,44.45
2023-04-27T20:33:53.724Z,44.60
2023-04-27T20:36:23.003Z,44.41
2023-04-27T20:38:51.554Z,44.75
2023-04-27T20:41:21.249Z,44.72
2023-04-27T20:43:52.428Z,44.68
2023-04-27T20:46:21.132Z,44.92
2023-04-27T20:48:51.024Z,44.71
2023-04-27T20:51:20.037Z,44.71
2023-04-27T20:53:48.514Z,44.83
2023-04-27T20:56:17.036Z,44.60
2023-04-27T20:58:45.446Z,44.87
2023-04-27T21:01:13.951Z,44.70
2023-04-27T21:03:42.673Z,44.64
2023-04-27T21:06:12.553Z,44.85
2023-04-27T21:08:41.776Z,44.77
2023-04-27T21:11:11.829Z,44.65
2023-04-27T21:13:40.281Z,44.65
2023-04-27T21:16:08.801Z,44.56
2023-04-27T21:18:37.372Z,44.64
2023-04-27T21:21:06.415Z,44.94
2023-04-27T21:23:36.600Z,44.78
2023-04-27T21:26:05.254Z,44.91
2023-04-27T21:28:33.652Z,44.93
2023-04-27T21:31:02.060Z,44.82
2023-04-27T21:33:32.021Z,44.83
2023-04-27T21:36:00.693Z,44.80
2023-04-27T21:38:29.132Z,44.92
2023-04-27T21:40:59.836Z,44.78
2023-04-27T21:43:28.472Z,44.98
2023-04-27T21:45:56.980Z,44.56
2023-04-27T21:48:26.078Z,44.84
2023-04-27T21:50:54.592Z,44.75
2023-04-27T21:53:23.143Z,45.07
2023-04-27T21:55:51.682Z,45.02
2023-04-27T21:58:21.468Z,45.34
2023-04-27T22:00:49.910Z,46.00
2023-04-27T22:03:18.667Z,45.67
2023-04-27T22:05:49.092Z,45.83
2023-04-27T22:08:18.198Z,46.20
2023-04-27T22:10:47.206Z,46.20
2023-04-27T22:13:18.895Z,46.27
2023-04-27T22:15:49.984Z,46.40
2023-04-27T22:18:18.649Z,46.27
2023-04-27T22:20:47.280Z,46.19
2023-04-27T22:23:15.858Z,46.69
2023-04-27T22:25:44.436Z,46.34
2023-04-27T22:28:13.069Z,46.37
2023-04-27T22:30:42.059Z,45.86
2023-04-27T22:33:11.950Z,45.37
2023-04-27T22:35:40.501Z,45.34
2023-04-27T22:38:09.040Z,45.04
2023-04-27T22:40:38.007Z,45.25
2023-04-27T22:43:06.522Z,45.41
2023-04-27T22:45:36.137Z,45.39
2023-04-27T22:48:07.065Z,45.17
2023-04-27T22:50:37.232Z,45.44
2023-04-27T22:53:05.678Z,45.40
2023-04-27T22:55:34.041Z,45.33
2023-04-27T22:58:02.474Z,45.38
2023-04-27T23:00:31.254Z,45.38
2023-04-27T23:02:59.813Z,45.13
2023-04-27T23:05:28.954Z,45.29
2023-04-27T23:07:59.834Z,45.39
2023-04-27T23:10:31.013Z,45.25
2023-04-27T23:13:01.397Z,45.18
2023-04-27T23:15:29.757Z,45.46
2023-04-27T23:17:58.133Z,45.24
2023-04-27T23:20:28.893Z,45.31
2023-04-27T23:22:58.977Z,45.45
2023-04-27T23:25:27.509Z,45.36
2023-04-27T23:27:55.946Z,45.35
2023-04-27T23:30:24.321Z,45.33
2023-04-27T23:32:53.226Z,45.48
2023-04-27T23:35:22.008Z,45.44
2023-04-27T23:37:50.355Z,45.34
2023-04-27T23:40:20.208Z,45.63
2023-04-27T23:42:50.844Z,45.61
2023-04-27T23:45:20.219Z,45.38
2023-04-27T23:47:48.679Z,45.40
2023-04-27T23:50:17.156Z,45.64
2023-04-27T23:52:45.601Z,45.68
2023-04-27T23:55:14.083Z,45.49
2023-04-27T23:57:44.303Z,45.71
